createdAt,value
2022-11-07T00:01:46.692Z,13.52
2022-11-07T00:04:14.443Z,9.48
2022-11-07T00:06:42.317Z,9.95
2022-11-07T00:09:09.673Z,8.45
2022-11-07T00:11:37.052Z,9.30
2022-11-07T00:14:04.417Z,8.30
2022-11-07T00:16:32.805Z,12.00
2022-11-07T00:19:00.188Z,8.50
2022-11-07T00:21:27.530Z,9.73
2022-11-07T00:23:54.977Z,12.52
2022-11-07T00:26:22.334Z,8.90
2022-11-07T00:28:49.938Z,8.30
2022-11-07T00:31:17.829Z,8.50
2022-11-07T00:33:46.225Z,10.27
2022-11-07T00:36:22.919Z,8.55
2022-11-07T00:38:51.058Z,9.60
2022-11-07T00:41:19.301Z,8.95
2022-11-07T00:43:46.700Z,9.63
2022-11-07T00:46:16.006Z,10.80
2022-11-07T00:48:43.693Z,10.57
2022-11-07T00:51:14.306Z,7.97
2022-11-07T00:53:42.365Z,10.15
2022-11-07T00:56:15.042Z,7.60
2022-11-07T00:58:42.855Z,10.00
2022-11-07T01:01:13.809Z,8.63
2022-11-07T01:04:00.202Z,8.05
2022-11-07T01:06:29.228Z,9.25
2022-11-07T01:08:57.112Z,10.43
2022-11-07T01:11:26.462Z,9.20
2022-11-07T01:13:58.248Z,8.68
2022-11-07T01:16:26.566Z,9.35
2022-11-07T01:18:54.248Z,9.77
2022-11-07T01:21:22.456Z,8.23
2022-11-07T01:23:50.087Z,9.90
2022-11-07T01:26:17.709Z,8.40
2022-11-07T01:28:45.087Z,9.68
2022-11-07T01:31:14.707Z,6.95
2022-11-07T01:33:43.230Z,7.88
2022-11-07T01:36:14.474Z,8.43
2022-11-07T01:38:46.715Z,9.30
2022-11-07T01:41:21.690Z,10.02
2022-11-07T01:43:54.675Z,9.18
2022-11-07T01:46:26.638Z,9.05
2022-11-07T01:49:18.706Z,8.23
2022-11-07T01:52:14.971Z,7.82
2022-11-07T01:54:55.578Z,8.80
2022-11-07T01:57:30.262Z,10.07
2022-11-07T02:00:01.347Z,8.82
2022-11-07T02:02:29.225Z,7.50
2022-11-07T02:04:58.605Z,7.43
2022-11-07T02:07:26.223Z,8.68
2022-11-07T02:09:54.273Z,9.93
2022-11-07T02:12:24.407Z,6.47
2022-11-07T02:14:52.033Z,9.27
2022-11-07T02:17:19.654Z,8.77
2022-11-07T02:19:55.981Z,8.75
2022-11-07T02:22:39.233Z,8.32
2022-11-07T02:25:17.486Z,6.35
2022-11-07T02:27:47.962Z,6.57
2022-11-07T02:30:28.587Z,10.65
2022-11-07T02:32:56.236Z,7.53
2022-11-07T02:35:37.728Z,7.95
2022-11-07T02:38:17.369Z,7.20
2022-11-07T02:40:47.751Z,9.00
2022-11-07T02:43:17.907Z,14.10
2022-11-07T02:45:48.352Z,12.27
2022-11-07T02:48:15.994Z,7.18
2022-11-07T02:50:44.562Z,13.80
2022-11-07T02:53:12.547Z,9.30
2022-11-07T02:55:40.282Z,11.48
2022-11-07T02:58:07.681Z,11.75
2022-11-07T03:00:35.046Z,11.02
2022-11-07T03:03:02.611Z,10.38
2022-11-07T03:05:29.978Z,9.32
2022-11-07T03:07:57.457Z,10.23
2022-11-07T03:10:24.939Z,14.13
2022-11-07T03:12:52.489Z,11.40
2022-11-07T03:15:19.980Z,10.65
2022-11-07T03:17:47.348Z,8.95
2022-11-07T03:20:14.670Z,11.27
2022-11-07T03:22:42.176Z,12.77
2022-11-07T03:25:09.802Z,14.50
2022-11-07T03:27:45.123Z,14.65
2022-11-07T03:30:12.671Z,11.90
2022-11-07T03:32:40.054Z,12.43
2022-11-07T03:35:08.055Z,12.45
2022-11-07T03:37:35.506Z,15.45
2022-11-07T03:40:03.046Z,15.23
2022-11-07T03:42:30.419Z,11.63
2022-11-07T03:44:57.814Z,13.15
2022-11-07T03:47:25.174Z,16.45
2022-11-07T03:49:52.564Z,14.70
2022-11-07T03:52:19.922Z,14.73
2022-11-07T03:54:47.323Z,12.10
2022-11-07T03:57:14.722Z,13.13
2022-11-07T03:59:42.109Z,12.75
2022-11-07T04:02:09.617Z,18.63
2022-11-07T04:04:37.205Z,19.40
2022-11-07T04:07:04.586Z,17.20
2022-11-07T04:09:32.032Z,45.85
2022-11-07T04:12:17.775Z,19.90
2022-11-07T04:15:03.566Z,20.38
2022-11-07T04:17:31.234Z,21.85
2022-11-07T04:19:58.694Z,18.92
2022-11-07T04:22:26.942Z,15.23
2022-11-07T04:24:54.289Z,13.10
2022-11-07T04:27:40.813Z,20.55
2022-11-07T04:30:19.779Z,16.85
2022-11-07T04:32:55.881Z,15.77
2022-11-07T04:35:26.095Z,15.32
2022-11-07T04:37:53.918Z,20.17
2022-11-07T04:40:21.634Z,19.65
2022-11-07T04:42:50.111Z,13.60
2022-11-07T04:45:18.123Z,19.67
2022-11-07T04:47:46.036Z,21.70
2022-11-07T04:50:16.743Z,19.60
2022-11-07T04:52:45.054Z,15.55
2022-11-07T04:55:20.038Z,17.65
2022-11-07T04:57:47.539Z,17.20
2022-11-07T05:00:16.359Z,17.90
2022-11-07T05:02:43.901Z,14.25
2022-11-07T05:05:12.144Z,14.07
2022-11-07T05:07:40.167Z,13.32
2022-11-07T05:10:12.356Z,14.93
2022-11-07T05:12:39.915Z,15.70
2022-11-07T05:15:07.787Z,19.17
2022-11-07T05:17:35.117Z,15.93
2022-11-07T05:20:02.515Z,13.43
2022-11-07T05:22:51.180Z,17.10
2022-11-07T05:25:22.556Z,14.80
2022-11-07T05:27:54.572Z,15.38
2022-11-07T05:30:21.956Z,20.70
2022-11-07T05:32:49.333Z,11.68
2022-11-07T05:35:16.810Z,14.00
2022-11-07T05:37:44.239Z,15.15
2022-11-07T05:40:12.020Z,13.18
2022-11-07T05:42:39.347Z,13.88
2022-11-07T05:45:07.686Z,15.07
2022-11-07T05:47:35.092Z,12.73
2022-11-07T05:50:02.466Z,12.45
2022-11-07T05:52:29.928Z,13.88
2022-11-07T05:54:57.304Z,15.63
2022-11-07T05:57:24.705Z,14.68
2022-11-07T05:59:52.037Z,12.75
2022-11-07T06:02:19.468Z,13.82
2022-11-07T06:04:47.023Z,17.30
2022-11-07T06:07:14.779Z,16.77
2022-11-07T06:09:42.638Z,16.67
2022-11-07T06:12:10.332Z,13.18
2022-11-07T06:14:37.974Z,19.55
2022-11-07T06:17:07.362Z,14.68
2022-11-07T06:19:35.010Z,13.75
2022-11-07T06:22:02.664Z,14.43
2022-11-07T06:24:30.302Z,16.52
2022-11-07T06:26:57.972Z,17.40
2022-11-07T06:29:25.663Z,15.63
2022-11-07T06:31:53.368Z,18.83
2022-11-07T06:34:21.070Z,16.17
2022-11-07T06:37:01.579Z,14.07
2022-11-07T06:39:30.742Z,13.35
2022-11-07T06:41:58.485Z,15.60
2022-11-07T06:44:26.181Z,11.30
2022-11-07T06:46:53.869Z,14.60
2022-11-07T06:49:21.602Z,16.83
2022-11-07T06:51:49.243Z,14.13
2022-11-07T06:54:16.986Z,16.58
2022-11-07T06:56:44.670Z,16.25
2022-11-07T06:59:12.455Z,12.05
2022-11-07T07:01:40.288Z,15.57
2022-11-07T07:04:10.114Z,11.75
2022-11-07T07:06:38.889Z,11.73
2022-11-07T07:09:09.337Z,13.95
2022-11-07T07:11:37.887Z,12.63
2022-11-07T07:14:11.249Z,7.97
2022-11-07T07:16:39.576Z,15.65
2022-11-07T07:19:07.368Z,7.68
2022-11-07T07:21:35.080Z,7.95
2022-11-07T07:24:02.748Z,9.32
2022-11-07T07:26:30.434Z,8.70
2022-11-07T07:28:58.222Z,9.77
2022-11-07T07:31:29.252Z,7.55
2022-11-07T07:33:57.337Z,11.75
2022-11-07T07:36:25.340Z,6.72
2022-11-07T07:38:53.105Z,7.45
2022-11-07T07:41:20.881Z,12.43
2022-11-07T07:43:48.710Z,14.75
2022-11-07T07:46:20.135Z,14.60
2022-11-07T07:48:47.855Z,16.02
2022-11-07T07:51:15.529Z,13.05
2022-11-07T07:53:43.169Z,12.60
2022-11-07T07:56:10.987Z,10.02
2022-11-07T07:58:38.699Z,9.10
2022-11-07T08:01:10.423Z,8.77
2022-11-07T08:03:59.599Z,12.10
2022-11-07T08:06:26.371Z,9.45
2022-11-07T08:08:54.004Z,13.88
2022-11-07T08:11:21.692Z,11.27
2022-11-07T08:13:49.479Z,9.77
2022-11-07T08:16:17.132Z,8.27
2022-11-07T08:18:44.879Z,8.07
2022-11-07T08:21:12.682Z,8.95
2022-11-07T08:23:40.397Z,6.35
2022-11-07T08:26:08.118Z,5.47
2022-11-07T08:28:36.291Z,10.15
2022-11-07T08:31:06.104Z,8.45
2022-11-07T08:33:33.961Z,12.60
2022-11-07T08:36:02.621Z,11.50
2022-11-07T08:38:31.301Z,8.07
2022-11-07T08:40:59.164Z,9.68
2022-11-07T08:43:26.890Z,9.52
2022-11-07T08:45:55.365Z,10.73
2022-11-07T08:48:23.533Z,10.15
2022-11-07T08:50:55.187Z,13.50
2022-11-07T08:53:23.444Z,15.10
2022-11-07T08:55:51.145Z,11.00
2022-11-07T08:58:19.395Z,13.88
2022-11-07T09:00:47.512Z,11.85
2022-11-07T09:03:39.138Z,12.45
2022-11-07T09:06:03.228Z,12.00
2022-11-07T09:08:31.122Z,12.18
2022-11-07T09:11:03.329Z,11.25
2022-11-07T09:15:59.358Z,16.88
2022-11-07T09:18:27.794Z,14.98
2022-11-07T09:20:55.554Z,17.98
2022-11-07T09:23:23.274Z,14.18
2022-11-07T09:25:51.168Z,12.15
2022-11-07T09:28:18.885Z,12.55
2022-11-07T09:30:46.643Z,13.27
2022-11-07T09:33:14.535Z,13.80
2022-11-07T09:35:42.706Z,14.50
2022-11-07T09:38:10.371Z,10.73
2022-11-07T09:40:43.963Z,14.25
2022-11-07T09:43:21.766Z,12.00
2022-11-07T09:45:55.851Z,13.90
2022-11-07T09:48:25.052Z,17.95
2022-11-07T09:50:53.260Z,15.18
2022-11-07T09:53:36.675Z,16.27
2022-11-07T09:56:05.385Z,16.05
2022-11-07T09:58:33.054Z,19.95
2022-11-07T10:01:03.050Z,13.10
2022-11-07T10:03:30.828Z,14.05
2022-11-07T10:06:07.749Z,17.92
2022-11-07T10:08:53.757Z,16.25
2022-11-07T10:11:25.342Z,14.82
2022-11-07T10:14:02.327Z,13.40
2022-11-07T10:16:33.202Z,22.23
2022-11-07T10:19:06.992Z,13.18
2022-11-07T10:21:45.251Z,18.17
2022-11-07T10:24:24.921Z,14.65
2022-11-07T10:26:52.759Z,21.67
2022-11-07T10:29:21.671Z,16.60
2022-11-07T10:32:01.569Z,18.38
2022-11-07T10:34:35.770Z,14.70
2022-11-07T10:37:04.093Z,13.48
2022-11-07T10:39:32.610Z,20.05
2022-11-07T10:42:06.743Z,15.00
2022-11-07T10:44:34.698Z,14.95
2022-11-07T10:47:03.684Z,18.50
2022-11-07T10:49:32.434Z,27.85
2022-11-07T10:52:10.267Z,15.02
2022-11-07T10:54:40.231Z,18.30
2022-11-07T10:57:12.363Z,20.77
2022-11-07T10:59:41.741Z,15.85
2022-11-07T11:02:26.196Z,19.73
2022-11-07T11:05:02.570Z,17.88
2022-11-07T11:07:36.126Z,17.20
2022-11-07T11:10:04.893Z,18.25
2022-11-07T11:12:35.037Z,18.23
2022-11-07T11:15:22.706Z,21.58
2022-11-07T11:18:03.818Z,19.58
2022-11-07T11:20:31.479Z,19.95
2022-11-07T11:23:00.663Z,17.65
2022-11-07T11:25:28.540Z,19.15
2022-11-07T11:27:59.695Z,17.30
2022-11-07T11:30:27.392Z,19.52
2022-11-07T11:33:01.438Z,17.52
2022-11-07T11:35:37.578Z,20.40
2022-11-07T11:38:13.963Z,17.65
2022-11-07T11:40:42.998Z,17.10
2022-11-07T11:43:37.149Z,19.35
2022-11-07T11:46:14.033Z,18.60
2022-11-07T11:48:44.728Z,21.67
2022-11-07T11:51:31.350Z,21.17
2022-11-07T11:53:59.074Z,25.95
2022-11-07T11:56:32.655Z,18.88
2022-11-07T11:59:19.183Z,25.13
2022-11-07T12:01:46.898Z,21.85
2022-11-07T12:04:28.237Z,21.60
2022-11-07T12:07:16.936Z,20.38
2022-11-07T12:09:44.708Z,20.58
2022-11-07T12:12:17.185Z,21.02
2022-11-07T12:14:57.056Z,19.17
2022-11-07T12:17:25.411Z,20.27
2022-11-07T12:20:04.681Z,21.40
2022-11-07T12:22:41.360Z,19.02
2022-11-07T12:25:10.283Z,20.30
2022-11-07T12:27:47.164Z,25.60
2022-11-07T12:30:24.072Z,20.33
2022-11-07T12:32:51.754Z,20.13
2022-11-07T12:35:19.422Z,22.42
2022-11-07T12:37:47.223Z,20.05
2022-11-07T12:40:21.814Z,24.48
2022-11-07T12:42:49.432Z,24.45
2022-11-07T12:45:22.995Z,23.33
2022-11-07T12:48:15.272Z,18.05
2022-11-07T12:51:03.308Z,18.77
2022-11-07T12:53:30.978Z,21.40
2022-11-07T12:56:04.720Z,20.15
2022-11-07T12:58:34.064Z,23.42
2022-11-07T13:01:02.576Z,22.10
2022-11-07T13:03:30.594Z,22.83
2022-11-07T13:06:07.621Z,29.48
2022-11-07T13:08:39.678Z,32.38
2022-11-07T13:11:07.382Z,21.40
2022-11-07T13:13:35.074Z,24.90
2022-11-07T13:16:15.327Z,21.40
2022-11-07T13:18:43.816Z,22.67
2022-11-07T13:21:11.498Z,27.45
2022-11-07T13:23:40.325Z,21.30
2022-11-07T13:26:32.437Z,21.98
2022-11-07T13:28:58.015Z,28.83
2022-11-07T13:31:36.621Z,21.70
2022-11-07T13:34:11.363Z,25.65
2022-11-07T13:36:39.868Z,25.08
2022-11-07T13:39:08.417Z,29.42
2022-11-07T13:41:36.431Z,24.25
2022-11-07T13:44:05.966Z,26.63
2022-11-07T13:46:33.654Z,25.30
2022-11-07T13:49:07.261Z,27.42
2022-11-07T13:51:36.724Z,27.80
2022-11-07T13:54:10.416Z,25.45
2022-11-07T13:56:44.368Z,22.80
2022-11-07T13:59:22.176Z,23.33
2022-11-07T14:01:54.942Z,23.80
2022-11-07T14:04:22.875Z,27.08
2022-11-07T14:06:51.104Z,27.70
2022-11-07T14:09:20.418Z,22.27
2022-11-07T14:11:50.514Z,29.05
2022-11-07T14:14:18.268Z,29.17
2022-11-07T14:16:46.507Z,26.05
2022-11-07T14:19:15.379Z,27.52
2022-11-07T14:21:45.485Z,27.52
2022-11-07T14:24:20.151Z,28.67
2022-11-07T14:26:57.628Z,22.92
2022-11-07T14:29:25.344Z,25.42
2022-11-07T14:31:53.015Z,25.75
2022-11-07T14:34:22.514Z,25.98
2022-11-07T14:36:51.215Z,25.85
2022-11-07T14:39:19.664Z,23.02
2022-11-07T14:41:47.845Z,27.92
2022-11-07T14:44:18.039Z,30.05
2022-11-07T14:46:46.482Z,29.83
2022-11-07T14:49:26.159Z,30.40
2022-11-07T14:51:54.483Z,28.63
2022-11-07T14:54:23.219Z,25.20
2022-11-07T14:56:54.195Z,29.83
2022-11-07T14:59:23.863Z,29.33
2022-11-07T15:01:56.462Z,27.60
2022-11-07T15:04:29.564Z,27.98
2022-11-07T15:06:57.473Z,24.55
2022-11-07T15:09:32.738Z,30.27
2022-11-07T15:12:01.385Z,24.50
2022-11-07T15:14:33.306Z,23.95
2022-11-07T15:17:04.253Z,24.23
2022-11-07T15:19:33.465Z,22.75
2022-11-07T15:22:03.162Z,30.00
2022-11-07T15:24:30.854Z,26.23
2022-11-07T15:27:00.348Z,24.17
2022-11-07T15:29:32.171Z,22.05
2022-11-07T15:32:06.037Z,23.40
2022-11-07T15:34:57.049Z,23.33
2022-11-07T15:37:24.271Z,20.80
2022-11-07T15:39:52.223Z,21.27
2022-11-07T15:42:20.110Z,27.48
2022-11-07T15:44:47.763Z,25.30
2022-11-07T15:47:18.536Z,22.13
2022-11-07T15:49:46.626Z,30.42
2022-11-07T15:52:14.566Z,22.77
2022-11-07T15:54:42.323Z,25.38
2022-11-07T15:57:12.308Z,23.55
2022-11-07T15:59:40.102Z,23.98
2022-11-07T16:02:11.730Z,23.38
2022-11-07T16:04:40.033Z,27.58
2022-11-07T16:07:10.338Z,24.70
2022-11-07T16:09:38.157Z,21.08
2022-11-07T16:12:06.146Z,22.70
2022-11-07T16:14:44.274Z,31.25
2022-11-07T16:17:16.223Z,24.05
2022-11-07T16:19:43.991Z,25.15
2022-11-07T16:22:12.257Z,32.30
2022-11-07T16:24:39.969Z,19.92
2022-11-07T16:27:07.884Z,27.13
2022-11-07T16:29:35.568Z,26.35
2022-11-07T16:32:03.307Z,23.98
2022-11-07T16:34:31.554Z,28.38
2022-11-07T16:36:59.321Z,26.73
2022-11-07T16:39:27.004Z,38.33
2022-11-07T16:41:54.770Z,27.88
2022-11-07T16:44:26.284Z,31.25
2022-11-07T16:46:56.407Z,28.65
2022-11-07T16:49:33.734Z,28.25
2022-11-07T16:52:03.575Z,29.42
2022-11-07T16:54:31.296Z,29.92
2022-11-07T16:56:59.162Z,34.17
2022-11-07T16:59:27.061Z,29.00
2022-11-07T17:01:55.605Z,48.47
2022-11-07T17:04:23.690Z,38.28
2022-11-07T17:06:52.004Z,57.75
2022-11-07T17:09:22.291Z,37.88
2022-11-07T17:11:50.245Z,38.13
2022-11-07T17:14:18.007Z,33.88
2022-11-07T17:16:48.128Z,30.65
2022-11-07T17:19:15.915Z,38.53
2022-11-07T17:21:46.584Z,36.58
2022-11-07T17:24:25.386Z,35.53
2022-11-07T17:30:21.750Z,44.28
2022-11-07T17:33:05.174Z,39.80
2022-11-07T17:35:48.606Z,41.22
2022-11-07T17:38:30.506Z,45.75
2022-11-07T17:41:35.743Z,30.10
2022-11-07T17:44:16.104Z,30.52
2022-11-07T17:47:00.462Z,37.05
2022-11-07T17:49:38.055Z,34.30
2022-11-07T17:52:15.043Z,34.40
2022-11-07T17:57:39.744Z,33.72
2022-11-07T18:00:18.569Z,35.92
2022-11-07T18:02:55.076Z,28.73
2022-11-07T18:05:33.132Z,26.25
2022-11-07T18:08:15.431Z,32.45
2022-11-07T18:11:04.005Z,32.33
2022-11-07T18:13:53.277Z,39.35
2022-11-07T18:16:45.305Z,32.72
2022-11-07T18:19:21.976Z,40.63
2022-11-07T18:21:58.960Z,36.65
2022-11-07T18:24:44.847Z,37.03
2022-11-07T18:27:18.771Z,32.80
2022-11-07T18:29:52.356Z,36.17
2022-11-07T18:32:31.436Z,30.30
2022-11-07T18:35:09.697Z,31.60
2022-11-07T18:37:43.915Z,34.50
2022-11-07T18:40:13.949Z,32.50
2022-11-07T18:42:45.830Z,29.35
2022-11-07T18:45:14.229Z,38.47
2022-11-07T18:47:42.044Z,28.85
2022-11-07T18:50:11.189Z,28.58
2022-11-07T18:52:38.907Z,28.95
2022-11-07T18:55:06.726Z,28.23
2022-11-07T18:57:34.447Z,29.65
2022-11-07T19:00:02.085Z,29.33
2022-11-07T19:02:33.458Z,29.88
2022-11-07T19:05:01.203Z,29.80
2022-11-07T19:07:28.927Z,28.60
2022-11-07T19:09:56.627Z,29.60
2022-11-07T19:12:24.328Z,29.80
2022-11-07T19:14:51.973Z,29.00
2022-11-07T19:17:19.629Z,27.33
2022-11-07T19:19:47.273Z,27.58
2022-11-07T19:22:14.954Z,26.85
2022-11-07T19:24:42.603Z,29.55
2022-11-07T19:27:10.412Z,29.98
2022-11-07T19:29:38.193Z,32.05
2022-11-07T19:32:06.073Z,28.08
2022-11-07T19:34:34.206Z,30.55
2022-11-07T19:37:01.949Z,30.90
2022-11-07T19:39:30.858Z,31.10
2022-11-07T19:41:58.621Z,26.30
2022-11-07T19:44:26.382Z,28.17
2022-11-07T19:46:54.050Z,28.08
2022-11-07T19:49:21.837Z,31.95
2022-11-07T19:51:49.746Z,32.67
2022-11-07T19:54:17.464Z,33.25
2022-11-07T19:56:45.288Z,25.27
2022-11-07T19:59:13.132Z,36.25
2022-11-07T20:01:40.982Z,31.52
2022-11-07T20:04:08.907Z,31.27
2022-11-07T20:06:38.143Z,38.85
2022-11-07T20:09:07.286Z,35.10
2022-11-07T20:11:35.033Z,30.30
2022-11-07T20:14:04.137Z,29.10
2022-11-07T20:16:37.160Z,30.05
2022-11-07T20:19:05.437Z,34.20
2022-11-07T20:21:34.553Z,28.42
2022-11-07T20:24:02.449Z,31.67
2022-11-07T20:26:31.591Z,29.20
2022-11-07T20:28:59.887Z,27.67
2022-11-07T20:31:32.660Z,29.83
2022-11-07T20:34:01.653Z,31.55
2022-11-07T20:36:31.278Z,30.40
2022-11-07T20:38:59.675Z,31.90
2022-11-07T20:41:27.934Z,27.63
2022-11-07T20:43:56.374Z,31.55
2022-11-07T20:46:24.114Z,27.98
2022-11-07T20:48:53.450Z,30.73
2022-11-07T20:51:22.446Z,31.50
2022-11-07T20:53:51.010Z,31.33
2022-11-07T20:56:19.795Z,34.25
2022-11-07T20:58:47.508Z,30.10
2022-11-07T21:01:17.367Z,29.13
2022-11-07T21:03:45.245Z,28.58
2022-11-07T21:06:13.223Z,29.00
2022-11-07T21:08:41.858Z,31.88
2022-11-07T21:11:09.600Z,34.35
2022-11-07T21:13:37.972Z,36.10
2022-11-07T21:16:06.455Z,34.75
2022-11-07T21:18:34.191Z,32.67
2022-11-07T21:21:06.055Z,35.20
2022-11-07T21:23:33.815Z,39.95
2022-11-07T21:26:06.528Z,34.35
2022-11-07T21:28:34.972Z,34.55
2022-11-07T21:31:04.155Z,37.75
2022-11-07T21:33:32.394Z,31.73
2022-11-07T21:36:00.049Z,32.55
2022-11-07T21:38:27.808Z,32.42
2022-11-07T21:40:55.459Z,29.38
2022-11-07T21:43:23.289Z,31.60
2022-11-07T21:45:50.897Z,30.48
2022-11-07T21:48:18.615Z,34.28
2022-11-07T21:50:46.371Z,34.05
2022-11-07T21:53:14.158Z,31.73
2022-11-07T21:55:41.907Z,29.90
2022-11-07T21:58:09.605Z,28.77
2022-11-07T22:00:39.241Z,31.73
2022-11-07T22:03:06.979Z,29.35
2022-11-07T22:05:34.655Z,26.88
2022-11-07T22:08:02.304Z,26.95
2022-11-07T22:10:29.978Z,26.35
2022-11-07T22:12:57.635Z,27.45
2022-11-07T22:15:25.342Z,26.63
2022-11-07T22:17:54.481Z,24.58
2022-11-07T22:20:22.140Z,22.85
2022-11-07T22:22:49.817Z,24.38
2022-11-07T22:25:17.519Z,28.05
2022-11-07T22:27:45.177Z,27.45
2022-11-07T22:30:13.022Z,26.30
2022-11-07T22:32:41.115Z,23.50
2022-11-07T22:35:09.494Z,25.02
2022-11-07T22:37:37.312Z,32.40
2022-11-07T22:40:05.231Z,21.60
2022-11-07T22:42:33.456Z,19.85
2022-11-07T22:45:01.112Z,21.45
2022-11-07T22:47:28.812Z,21.85
2022-11-07T22:49:56.479Z,19.60
2022-11-07T22:52:24.147Z,19.60
2022-11-07T22:54:51.902Z,17.98
2022-11-07T22:57:19.587Z,18.52
2022-11-07T22:59:47.252Z,19.52
2022-11-07T23:02:15.033Z,18.50
2022-11-07T23:04:42.828Z,20.95
2022-11-07T23:07:10.691Z,23.88
2022-11-07T23:09:38.407Z,21.02
2022-11-07T23:12:06.158Z,20.45
2022-11-07T23:14:33.890Z,19.02
2022-11-07T23:17:01.558Z,23.23
2022-11-07T23:19:29.214Z,19.05
2022-11-07T23:21:56.918Z,22.17
2022-11-07T23:24:24.757Z,18.50
2022-11-07T23:26:52.451Z,22.00
2022-11-07T23:29:21.360Z,22.33
2022-11-07T23:31:49.890Z,17.40
2022-11-07T23:34:18.417Z,19.10
2022-11-07T23:36:46.379Z,22.58
2022-11-07T23:39:16.232Z,16.27
2022-11-07T23:41:44.393Z,17.30
2022-11-07T23:44:12.108Z,19.23
2022-11-07T23:46:58.814Z,19.02
2022-11-07T23:49:45.205Z,22.15
2022-11-07T23:52:12.969Z,19.17
2022-11-07T23:54:59.423Z,22.05
2022-11-07T23:57:27.121Z,18.60
